createdAt,value
2018-02-07T00:00:38.690Z,12.80
2018-02-07T00:01:38.760Z,12.80
2018-02-07T00:02:38.694Z,12.80
2018-02-07T00:03:38.761Z,12.80
2018-02-07T00:04:38.694Z,12.50
2018-02-07T00:05:38.762Z,12.50
2018-02-07T00:06:38.695Z,12.50
2018-02-07T00:07:38.702Z,12.50
2018-02-07T00:08:38.765Z,12.50
2018-02-07T00:09:38.700Z,12.50
2018-02-07T00:10:38.767Z,12.50
2018-02-07T00:11:38.700Z,12.50
2018-02-07T00:12:38.767Z,12.50
2018-02-07T00:13:38.765Z,12.50
2018-02-07T00:14:38.700Z,11.70
2018-02-07T00:15:38.773Z,11.70
2018-02-07T00:16:38.772Z,11.70
2018-02-07T00:17:38.704Z,11.70
2018-02-07T00:18:38.769Z,11.70
2018-02-07T00:19:38.770Z,11.70
2018-02-07T00:20:38.738Z,11.70
2018-02-07T00:21:38.704Z,11.70
2018-02-07T00:22:38.771Z,11.70
2018-02-07T00:23:38.772Z,11.70
2018-02-07T00:24:38.712Z,11.90
2018-02-07T00:25:38.766Z,11.90
2018-02-07T00:26:38.758Z,11.90
2018-02-07T00:27:38.860Z,11.90
2018-02-07T00:28:38.682Z,11.90
2018-02-07T00:29:38.679Z,11.90
2018-02-07T00:30:38.762Z,11.90
2018-02-07T00:31:38.774Z,11.90
2018-02-07T00:32:38.780Z,11.90
2018-02-07T00:33:38.679Z,11.90
2018-02-07T00:34:38.674Z,11.10
2018-02-07T00:35:38.713Z,11.10
2018-02-07T00:36:38.678Z,11.10
2018-02-07T00:37:38.677Z,11.10
2018-02-07T00:38:38.772Z,11.10
2018-02-07T00:39:38.771Z,11.10
2018-02-07T00:40:38.687Z,11.10
2018-02-07T00:41:38.733Z,11.10
2018-02-07T00:42:38.739Z,11.10
2018-02-07T00:43:38.741Z,11.10
2018-02-07T00:44:38.739Z,12.10
2018-02-07T00:45:38.773Z,12.10
2018-02-07T00:46:38.683Z,12.10
2018-02-07T00:47:38.651Z,12.10
2018-02-07T00:48:38.651Z,12.10
2018-02-07T00:49:38.720Z,12.10
2018-02-07T00:50:38.754Z,12.10
2018-02-07T00:51:38.724Z,12.10
2018-02-07T00:52:38.778Z,12.10
2018-02-07T00:53:38.727Z,12.10
2018-02-07T00:54:38.788Z,12.30
2018-02-07T00:55:38.698Z,12.30
2018-02-07T00:56:38.780Z,12.30
2018-02-07T00:57:38.683Z,12.30
2018-02-07T00:58:38.784Z,12.30
2018-02-07T00:59:38.784Z,12.30
2018-02-07T01:00:38.719Z,12.30
2018-02-07T01:01:38.794Z,12.30
2018-02-07T01:02:38.665Z,12.30
2018-02-07T01:03:38.755Z,12.30
2018-02-07T01:04:38.704Z,12.70
2018-02-07T01:05:38.802Z,12.70
2018-02-07T01:06:38.716Z,12.70
2018-02-07T01:07:38.789Z,12.70
2018-02-07T01:08:38.726Z,12.70
2018-02-07T01:09:38.795Z,12.70
2018-02-07T01:10:38.755Z,12.70
2018-02-07T01:11:38.707Z,12.70
2018-02-07T01:12:38.709Z,12.70
2018-02-07T01:13:38.674Z,12.70
2018-02-07T01:14:38.709Z,13.60
2018-02-07T01:15:38.796Z,13.60
2018-02-07T01:16:38.765Z,13.60
2018-02-07T01:17:38.796Z,13.60
2018-02-07T01:18:38.744Z,13.60
2018-02-07T01:19:38.728Z,13.60
2018-02-07T01:20:38.714Z,13.60
2018-02-07T01:21:38.802Z,13.60
2018-02-07T01:22:38.710Z,13.60
2018-02-07T01:23:38.735Z,13.60
2018-02-07T01:24:38.812Z,14.20
2018-02-07T01:25:38.746Z,14.20
2018-02-07T01:26:38.750Z,14.20
2018-02-07T01:27:38.814Z,14.20
2018-02-07T01:28:38.751Z,14.20
2018-02-07T01:29:38.814Z,14.20
2018-02-07T01:30:38.750Z,14.20
2018-02-07T01:31:38.815Z,14.20
2018-02-07T01:32:38.752Z,14.20
2018-02-07T01:33:38.816Z,14.20
2018-02-07T01:34:38.877Z,15.70
2018-02-07T01:35:38.738Z,15.70
2018-02-07T01:36:38.740Z,15.70
2018-02-07T01:37:38.735Z,15.70
2018-02-07T01:38:38.811Z,15.70
2018-02-07T01:39:38.742Z,15.70
2018-02-07T01:40:38.695Z,15.70
2018-02-07T01:41:38.740Z,15.70
2018-02-07T01:42:38.782Z,15.70
2018-02-07T01:43:38.823Z,15.70
2018-02-07T01:44:38.758Z,13.40
2018-02-07T01:45:38.884Z,13.40
2018-02-07T01:46:38.826Z,13.40
2018-02-07T01:47:38.822Z,13.40
2018-02-07T01:48:38.766Z,13.40
2018-02-07T01:49:38.828Z,13.40
2018-02-07T01:50:38.763Z,13.40
2018-02-07T01:51:38.836Z,13.40
2018-02-07T01:52:38.719Z,13.40
2018-02-07T01:53:38.764Z,13.40
2018-02-07T01:54:38.768Z,14.20
2018-02-07T01:55:38.758Z,14.20
2018-02-07T01:56:38.783Z,14.20
2018-02-07T01:57:38.700Z,14.20
2018-02-07T01:58:38.764Z,14.20
2018-02-07T01:59:38.782Z,14.20
2018-02-07T02:00:38.765Z,14.20
2018-02-07T02:01:38.726Z,14.20
2018-02-07T02:02:38.706Z,14.20
2018-02-07T02:03:38.814Z,14.20
2018-02-07T02:04:38.733Z,15.10
2018-02-07T02:05:38.725Z,15.10
2018-02-07T02:06:38.789Z,15.10
2018-02-07T02:07:38.762Z,15.10
2018-02-07T02:08:38.827Z,15.10
2018-02-07T02:09:38.743Z,15.10
2018-02-07T02:10:38.780Z,15.10
2018-02-07T02:11:38.722Z,15.10
2018-02-07T02:12:38.831Z,15.10
2018-02-07T02:13:38.744Z,15.10
2018-02-07T02:14:38.843Z,15.20
2018-02-07T02:15:38.841Z,15.20
2018-02-07T02:16:38.823Z,15.20
2018-02-07T02:17:38.842Z,15.20
2018-02-07T02:18:38.798Z,15.20
2018-02-07T02:19:38.775Z,15.20
2018-02-07T02:20:38.847Z,15.20
2018-02-07T02:21:38.843Z,15.20
2018-02-07T02:22:38.783Z,15.20
2018-02-07T02:23:38.867Z,15.20
2018-02-07T02:24:38.839Z,14.40
2018-02-07T02:25:38.770Z,14.40
2018-02-07T02:26:38.740Z,14.40
2018-02-07T02:27:38.839Z,14.40
2018-02-07T02:28:38.839Z,14.40
2018-02-07T02:29:38.841Z,14.40
2018-02-07T02:30:38.846Z,14.40
2018-02-07T02:31:38.846Z,14.40
2018-02-07T02:32:38.759Z,14.40
2018-02-07T02:33:38.758Z,14.40
2018-02-07T02:34:38.851Z,15.40
2018-02-07T02:35:38.807Z,15.40
2018-02-07T02:36:38.790Z,15.40
2018-02-07T02:37:38.855Z,15.40
2018-02-07T02:38:38.792Z,15.40
2018-02-07T02:39:38.854Z,15.40
2018-02-07T02:40:38.795Z,15.40
2018-02-07T02:41:38.942Z,15.40
2018-02-07T02:42:38.858Z,15.40
2018-02-07T02:43:38.791Z,15.40
2018-02-07T02:44:38.857Z,14.50
2018-02-07T02:45:38.855Z,14.50
2018-02-07T02:46:38.793Z,14.50
2018-02-07T02:47:38.859Z,14.50
2018-02-07T02:48:38.791Z,14.50
2018-02-07T02:49:38.863Z,14.50
2018-02-07T02:50:38.794Z,14.50
2018-02-07T02:51:38.859Z,14.50
2018-02-07T02:52:38.859Z,14.50
2018-02-07T02:53:38.799Z,14.50
2018-02-07T02:54:38.800Z,15.70
2018-02-07T02:55:38.822Z,15.70
2018-02-07T02:56:38.865Z,15.70
2018-02-07T02:57:38.808Z,15.70
2018-02-07T02:58:38.868Z,15.70
2018-02-07T02:59:38.802Z,15.70
2018-02-07T03:00:38.805Z,15.70
2018-02-07T03:01:38.807Z,15.70
2018-02-07T03:02:38.871Z,15.70
2018-02-07T03:03:38.801Z,15.70
2018-02-07T03:04:38.869Z,15.60
2018-02-07T03:05:38.875Z,15.60
2018-02-07T03:06:38.896Z,15.60
2018-02-07T03:07:38.875Z,15.60
2018-02-07T03:08:38.872Z,15.60
2018-02-07T03:09:38.875Z,15.60
2018-02-07T03:10:38.810Z,15.60
2018-02-07T03:11:38.878Z,15.60
2018-02-07T03:12:38.811Z,15.60
2018-02-07T03:13:38.877Z,15.60
2018-02-07T03:14:38.876Z,15.60
2018-02-07T03:15:38.814Z,14.40
2018-02-07T03:16:38.878Z,14.40
2018-02-07T03:17:38.812Z,14.40
2018-02-07T03:18:38.876Z,14.40
2018-02-07T03:19:47.215Z,14.40
2018-02-07T03:20:38.882Z,14.40
2018-02-07T03:21:38.882Z,14.40
2018-02-07T03:22:38.838Z,14.40
2018-02-07T03:23:38.817Z,14.40
2018-02-07T03:24:38.815Z,14.40
2018-02-07T03:25:38.946Z,14.90
2018-02-07T03:26:38.802Z,14.90
2018-02-07T03:27:38.875Z,14.90
2018-02-07T03:28:38.771Z,14.90
2018-02-07T03:29:38.802Z,14.90
2018-02-07T03:30:38.878Z,14.90
2018-02-07T03:31:38.877Z,14.90
2018-02-07T03:32:38.816Z,14.90
2018-02-07T03:33:38.792Z,14.90
2018-02-07T03:34:38.847Z,14.90
2018-02-07T03:35:38.876Z,17.00
2018-02-07T03:36:38.788Z,17.00
2018-02-07T03:37:38.873Z,17.00
2018-02-07T03:38:38.830Z,17.00
2018-02-07T03:39:38.880Z,17.00
2018-02-07T03:40:38.869Z,17.00
2018-02-07T03:41:38.819Z,17.00
2018-02-07T03:42:38.824Z,17.00
2018-02-07T03:43:38.759Z,17.00
2018-02-07T03:44:38.824Z,17.00
2018-02-07T03:45:38.821Z,15.80
2018-02-07T03:46:38.768Z,15.80
2018-02-07T03:47:38.888Z,15.80
2018-02-07T03:48:38.831Z,15.80
2018-02-07T03:49:38.883Z,15.80
2018-02-07T03:50:38.859Z,15.80
2018-02-07T03:51:38.893Z,15.80
2018-02-07T03:52:38.786Z,15.80
2018-02-07T03:53:38.827Z,15.80
2018-02-07T03:54:38.832Z,15.80
2018-02-07T03:55:38.839Z,16.90
2018-02-07T03:56:38.900Z,16.90
2018-02-07T03:57:38.836Z,16.90
2018-02-07T03:58:38.905Z,16.90
2018-02-07T03:59:38.905Z,16.90
2018-02-07T04:00:38.843Z,16.90
2018-02-07T04:01:38.905Z,16.90
2018-02-07T04:02:38.862Z,16.90
2018-02-07T04:03:38.904Z,16.90
2018-02-07T04:04:38.910Z,16.90
2018-02-07T04:05:38.840Z,17.30
2018-02-07T04:06:38.842Z,17.30
2018-02-07T04:07:38.907Z,17.30
2018-02-07T04:08:38.845Z,17.30
2018-02-07T04:09:38.840Z,17.30
2018-02-07T04:10:38.844Z,17.30
2018-02-07T04:11:38.910Z,17.30
2018-02-07T04:12:38.914Z,17.30
2018-02-07T04:13:38.917Z,17.30
2018-02-07T04:14:38.849Z,17.30
2018-02-07T04:15:38.821Z,19.00
2018-02-07T04:16:38.862Z,19.00
2018-02-07T04:17:38.817Z,19.00
2018-02-07T04:18:38.816Z,19.00
2018-02-07T04:19:38.769Z,19.00
2018-02-07T04:20:38.821Z,19.00
2018-02-07T04:21:38.862Z,19.00
2018-02-07T04:22:38.822Z,19.00
2018-02-07T04:23:38.872Z,19.00
2018-02-07T04:24:38.771Z,19.00
2018-02-07T04:25:38.922Z,16.40
2018-02-07T04:26:38.856Z,16.40
2018-02-07T04:27:38.921Z,16.40
2018-02-07T04:28:38.856Z,16.40
2018-02-07T04:29:38.921Z,16.40
2018-02-07T04:30:38.936Z,16.40
2018-02-07T04:31:38.853Z,16.40
2018-02-07T04:32:38.936Z,16.40
2018-02-07T04:33:38.863Z,16.40
2018-02-07T04:34:38.859Z,16.40
2018-02-07T04:35:38.908Z,16.50
2018-02-07T04:36:38.879Z,16.50
2018-02-07T04:37:38.849Z,16.50
2018-02-07T04:38:38.816Z,16.50
2018-02-07T04:39:38.913Z,16.50
2018-02-07T04:40:38.824Z,16.50
2018-02-07T04:41:38.859Z,16.50
2018-02-07T04:42:38.917Z,16.50
2018-02-07T04:43:38.882Z,16.50
2018-02-07T04:44:38.916Z,16.50
2018-02-07T04:45:38.838Z,16.50
2018-02-07T04:46:38.892Z,16.50
2018-02-07T04:47:38.836Z,16.50
2018-02-07T04:48:38.852Z,16.50
2018-02-07T04:49:38.836Z,16.50
2018-02-07T04:50:38.929Z,16.50
2018-02-07T04:51:38.932Z,16.50
2018-02-07T04:52:38.840Z,16.50
2018-02-07T04:53:38.837Z,16.50
2018-02-07T04:54:38.934Z,16.50
2018-02-07T04:55:38.892Z,15.90
2018-02-07T04:56:38.855Z,15.90
2018-02-07T04:57:38.930Z,15.90
2018-02-07T04:58:38.879Z,15.90
2018-02-07T04:59:38.927Z,15.90
2018-02-07T05:00:38.840Z,15.90
2018-02-07T05:01:38.930Z,15.90
2018-02-07T05:02:38.846Z,15.90
2018-02-07T05:03:38.930Z,15.90
2018-02-07T05:04:38.845Z,15.90
2018-02-07T05:05:38.896Z,15.50
2018-02-07T05:06:38.869Z,15.50
2018-02-07T05:07:38.938Z,15.50
2018-02-07T05:08:38.931Z,15.50
2018-02-07T05:09:38.939Z,15.50
2018-02-07T05:10:38.873Z,15.50
2018-02-07T05:11:38.853Z,15.50
2018-02-07T05:12:38.946Z,15.50
2018-02-07T05:13:38.852Z,15.50
2018-02-07T05:14:38.904Z,15.50
2018-02-07T05:15:38.883Z,15.60
2018-02-07T05:16:38.885Z,15.60
2018-02-07T05:17:38.954Z,15.60
2018-02-07T05:18:38.949Z,15.60
2018-02-07T05:19:38.952Z,15.60
2018-02-07T05:20:38.886Z,15.60
2018-02-07T05:21:38.952Z,15.60
2018-02-07T05:22:38.910Z,15.60
2018-02-07T05:23:38.973Z,15.60
2018-02-07T05:24:38.837Z,15.60
2018-02-07T05:25:38.957Z,16.90
2018-02-07T05:26:38.957Z,16.90
2018-02-07T05:27:38.958Z,16.90
2018-02-07T05:28:38.986Z,16.90
2018-02-07T05:29:38.960Z,16.90
2018-02-07T05:30:38.903Z,16.90
2018-02-07T05:31:38.960Z,16.90
2018-02-07T05:32:38.961Z,16.90
2018-02-07T05:33:38.931Z,16.90
2018-02-07T05:34:38.965Z,16.90
2018-02-07T05:35:38.919Z,15.40
2018-02-07T05:36:38.860Z,15.40
2018-02-07T05:37:38.953Z,15.40
2018-02-07T05:38:38.899Z,15.40
2018-02-07T05:39:38.964Z,15.40
2018-02-07T05:40:38.914Z,15.40
2018-02-07T05:41:38.961Z,15.40
2018-02-07T05:42:38.900Z,15.40
2018-02-07T05:43:38.965Z,15.40
2018-02-07T05:44:38.904Z,15.40
2018-02-07T05:45:38.974Z,14.50
2018-02-07T05:46:38.930Z,14.50
2018-02-07T05:47:38.927Z,14.50
2018-02-07T05:48:38.904Z,14.50
2018-02-07T05:49:38.910Z,14.50
2018-02-07T05:50:38.908Z,14.50
2018-02-07T05:51:38.972Z,14.50
2018-02-07T05:52:38.974Z,14.50
2018-02-07T05:53:38.911Z,14.50
2018-02-07T05:54:38.974Z,14.50
2018-02-07T05:55:38.910Z,16.80
2018-02-07T05:56:38.862Z,16.80
2018-02-07T05:57:38.974Z,16.80
2018-02-07T05:58:38.913Z,16.80
2018-02-07T05:59:38.981Z,16.80
2018-02-07T06:00:38.913Z,16.80
2018-02-07T06:01:38.977Z,16.80
2018-02-07T06:02:38.918Z,16.80
2018-02-07T06:03:38.909Z,16.80
2018-02-07T06:04:38.982Z,16.80
2018-02-07T06:05:38.879Z,15.50
2018-02-07T06:06:38.831Z,15.50
2018-02-07T06:07:38.839Z,15.50
2018-02-07T06:08:38.927Z,15.50
2018-02-07T06:09:38.923Z,15.50
2018-02-07T06:10:38.883Z,15.50
2018-02-07T06:11:38.882Z,15.50
2018-02-07T06:12:38.886Z,15.50
2018-02-07T06:13:38.886Z,15.50
2018-02-07T06:14:38.886Z,15.50
2018-02-07T06:15:38.890Z,16.90
2018-02-07T06:16:38.891Z,16.90
2018-02-07T06:17:38.979Z,16.90
2018-02-07T06:18:38.983Z,16.90
2018-02-07T06:19:38.973Z,16.90
2018-02-07T06:20:38.986Z,16.90
2018-02-07T06:21:38.977Z,16.90
2018-02-07T06:22:38.977Z,16.90
2018-02-07T06:23:38.989Z,16.90
2018-02-07T06:24:38.909Z,16.90
2018-02-07T06:25:38.994Z,15.99
2018-02-07T06:26:38.991Z,15.99
2018-02-07T06:27:38.953Z,15.99
2018-02-07T06:28:38.885Z,15.99
2018-02-07T06:29:38.926Z,15.99
2018-02-07T06:30:38.999Z,15.99
2018-02-07T06:31:38.926Z,15.99
2018-02-07T06:32:38.994Z,15.99
2018-02-07T06:33:38.931Z,15.99
2018-02-07T06:34:39.000Z,15.99
2018-02-07T06:35:38.956Z,15.60
2018-02-07T06:36:38.954Z,15.60
2018-02-07T06:37:38.897Z,15.60
2018-02-07T06:38:38.862Z,15.60
2018-02-07T06:39:38.867Z,15.60
2018-02-07T06:40:38.869Z,15.60
2018-02-07T06:41:38.875Z,15.60
2018-02-07T06:42:38.870Z,15.60
2018-02-07T06:43:38.866Z,15.60
2018-02-07T06:44:38.879Z,15.60
2018-02-07T06:45:38.994Z,16.00
2018-02-07T06:46:38.935Z,16.00
2018-02-07T06:47:38.941Z,16.00
2018-02-07T06:48:38.940Z,16.00
2018-02-07T06:49:38.994Z,16.00
2018-02-07T06:50:38.874Z,16.00
2018-02-07T06:51:38.868Z,16.00
2018-02-07T06:52:38.990Z,16.00
2018-02-07T06:53:38.995Z,16.00
2018-02-07T06:54:38.995Z,16.00
2018-02-07T06:55:38.928Z,16.80
2018-02-07T06:56:39.000Z,16.80
2018-02-07T06:57:38.938Z,16.80
2018-02-07T06:58:39.002Z,16.80
2018-02-07T06:59:38.913Z,16.80
2018-02-07T07:00:38.935Z,16.80
2018-02-07T07:01:39.032Z,16.80
2018-02-07T07:02:39.001Z,16.80
2018-02-07T07:03:38.903Z,16.80
2018-02-07T07:04:38.934Z,16.80
2018-02-07T07:05:39.108Z,15.70
2018-02-07T07:06:38.948Z,15.70
2018-02-07T07:07:39.045Z,15.70
2018-02-07T07:08:39.015Z,15.70
2018-02-07T07:09:39.020Z,15.70
2018-02-07T07:10:39.017Z,15.70
2018-02-07T07:11:39.021Z,15.70
2018-02-07T07:12:38.960Z,15.70
2018-02-07T07:13:39.066Z,15.70
2018-02-07T07:14:38.956Z,15.70
2018-02-07T07:15:38.849Z,16.70
2018-02-07T07:16:38.961Z,16.70
2018-02-07T07:17:38.883Z,16.70
2018-02-07T07:18:38.945Z,16.70
2018-02-07T07:19:38.887Z,16.70
2018-02-07T07:20:38.931Z,16.70
2018-02-07T07:21:38.903Z,16.70
2018-02-07T07:22:38.893Z,16.70
2018-02-07T07:23:38.910Z,16.70
2018-02-07T07:24:38.870Z,16.70
2018-02-07T07:25:38.980Z,16.60
2018-02-07T07:26:39.025Z,16.60
2018-02-07T07:27:38.976Z,16.60
2018-02-07T07:28:39.029Z,16.60
2018-02-07T07:29:39.054Z,16.60
2018-02-07T07:30:38.965Z,16.60
2018-02-07T07:31:39.030Z,16.60
2018-02-07T07:32:38.962Z,16.60
2018-02-07T07:33:39.033Z,16.60
2018-02-07T07:34:38.961Z,16.60
2018-02-07T07:35:38.962Z,15.60
2018-02-07T07:36:38.961Z,15.60
2018-02-07T07:37:39.047Z,15.60
2018-02-07T07:38:38.958Z,15.60
2018-02-07T07:39:39.030Z,15.60
2018-02-07T07:40:38.966Z,15.60
2018-02-07T07:41:38.964Z,15.60
2018-02-07T07:42:38.949Z,15.60
2018-02-07T07:43:39.035Z,15.60
2018-02-07T07:44:38.903Z,15.60
2018-02-07T07:45:38.964Z,16.00
2018-02-07T07:46:38.942Z,16.00
2018-02-07T07:47:38.946Z,16.00
2018-02-07T07:48:38.914Z,16.00
2018-02-07T07:49:38.859Z,16.00
2018-02-07T07:50:38.974Z,16.00
2018-02-07T07:51:38.967Z,16.00
2018-02-07T07:52:38.912Z,16.00
2018-02-07T07:53:38.947Z,16.00
2018-02-07T07:54:38.908Z,16.00
2018-02-07T07:55:39.256Z,16.70
2018-02-07T07:56:38.979Z,16.70
2018-02-07T07:57:38.935Z,16.70
2018-02-07T07:58:38.976Z,16.70
2018-02-07T07:59:39.047Z,16.70
2018-02-07T08:00:38.988Z,16.70
2018-02-07T08:01:38.983Z,16.70
2018-02-07T08:02:39.051Z,16.70
2018-02-07T08:03:38.978Z,16.70
2018-02-07T08:04:39.051Z,16.70
2018-02-07T08:05:39.004Z,17.10
2018-02-07T08:06:39.051Z,17.10
2018-02-07T08:07:38.988Z,17.10
2018-02-07T08:08:39.052Z,17.10
2018-02-07T08:09:38.990Z,17.10
2018-02-07T08:10:39.051Z,17.10
2018-02-07T08:11:39.000Z,17.10
2018-02-07T08:12:39.058Z,17.10
2018-02-07T08:13:39.055Z,17.10
2018-02-07T08:14:39.061Z,17.10
2018-02-07T08:15:38.993Z,17.80
2018-02-07T08:16:39.017Z,17.80
2018-02-07T08:17:39.056Z,17.80
2018-02-07T08:18:39.024Z,17.80
2018-02-07T08:19:38.995Z,17.80
2018-02-07T08:20:39.057Z,17.80
2018-02-07T08:21:39.070Z,17.80
2018-02-07T08:22:38.994Z,17.80
2018-02-07T08:23:39.063Z,17.80
2018-02-07T08:24:38.993Z,17.80
2018-02-07T08:25:39.063Z,15.60
2018-02-07T08:26:39.061Z,15.60
2018-02-07T08:27:39.061Z,15.60
2018-02-07T08:28:39.001Z,15.60
2018-02-07T08:29:39.064Z,15.60
2018-02-07T08:30:38.999Z,15.60
2018-02-07T08:31:39.067Z,15.60
2018-02-07T08:32:39.004Z,15.60
2018-02-07T08:33:39.069Z,15.60
2018-02-07T08:34:39.001Z,15.60
2018-02-07T08:35:38.919Z,17.60
2018-02-07T08:36:38.967Z,17.60
2018-02-07T08:37:38.962Z,17.60
2018-02-07T08:38:38.924Z,17.60
2018-02-07T08:39:39.001Z,17.60
2018-02-07T08:40:39.016Z,17.60
2018-02-07T08:41:39.015Z,17.60
2018-02-07T08:42:39.018Z,17.60
2018-02-07T08:43:39.021Z,17.60
2018-02-07T08:44:38.925Z,17.60
2018-02-07T08:45:39.077Z,15.60
2018-02-07T08:46:38.981Z,15.60
2018-02-07T08:47:38.980Z,15.60
2018-02-07T08:48:38.981Z,15.60
2018-02-07T08:49:39.109Z,15.60
2018-02-07T08:50:39.045Z,15.60
2018-02-07T08:51:39.044Z,15.60
2018-02-07T08:52:39.026Z,15.60
2018-02-07T08:53:38.982Z,15.60
2018-02-07T08:54:39.062Z,15.60
2018-02-07T08:55:39.056Z,17.10
2018-02-07T08:56:38.948Z,17.10
2018-02-07T08:57:39.065Z,17.10
2018-02-07T08:58:39.008Z,17.10
2018-02-07T08:59:39.068Z,17.10
2018-02-07T09:00:39.034Z,17.10
2018-02-07T09:01:38.981Z,17.10
2018-02-07T09:02:39.045Z,17.10
2018-02-07T09:03:39.009Z,17.10
2018-02-07T09:04:39.044Z,17.10
2018-02-07T09:05:38.996Z,16.00
2018-02-07T09:06:38.995Z,16.00
2018-02-07T09:07:38.943Z,16.00
2018-02-07T09:08:38.994Z,16.00
2018-02-07T09:09:39.006Z,16.00
2018-02-07T09:10:38.991Z,16.00
2018-02-07T09:11:38.896Z,16.00
2018-02-07T09:12:38.896Z,16.00
2018-02-07T09:13:38.997Z,16.00
2018-02-07T09:14:38.992Z,16.00
2018-02-07T09:15:39.023Z,14.80
2018-02-07T09:16:39.094Z,14.80
2018-02-07T09:17:39.027Z,14.80
2018-02-07T09:18:39.092Z,14.80
2018-02-07T09:19:39.060Z,14.80
2018-02-07T09:20:39.033Z,14.80
2018-02-07T09:21:39.096Z,14.80
2018-02-07T09:22:39.033Z,14.80
2018-02-07T09:23:39.103Z,14.80
2018-02-07T09:24:39.029Z,14.80
2018-02-07T09:25:38.990Z,17.40
2018-02-07T09:26:38.959Z,17.40
2018-02-07T09:27:38.997Z,17.40
2018-02-07T09:28:38.957Z,17.40
2018-02-07T09:29:38.975Z,17.40
2018-02-07T09:30:38.991Z,17.40
2018-02-07T09:31:38.970Z,17.40
2018-02-07T09:32:38.976Z,17.40
2018-02-07T09:33:38.989Z,17.40
2018-02-07T09:34:38.991Z,17.40
2018-02-07T09:35:39.102Z,17.50
2018-02-07T09:36:39.052Z,17.50
2018-02-07T09:37:39.008Z,17.50
2018-02-07T09:38:39.050Z,17.50
2018-02-07T09:39:39.011Z,17.50
2018-02-07T09:40:39.011Z,17.50
2018-02-07T09:41:39.058Z,17.50
2018-02-07T09:42:38.989Z,17.50
2018-02-07T09:43:39.095Z,17.50
2018-02-07T09:44:39.056Z,17.50
2018-02-07T09:45:39.111Z,16.30
2018-02-07T09:46:39.044Z,16.30
2018-02-07T09:47:39.109Z,16.30
2018-02-07T09:48:39.046Z,16.30
2018-02-07T09:49:39.110Z,16.30
2018-02-07T09:50:39.047Z,16.30
2018-02-07T09:51:39.123Z,16.30
2018-02-07T09:52:39.117Z,16.30
2018-02-07T09:53:39.051Z,16.30
2018-02-07T09:54:39.117Z,16.30
2018-02-07T09:55:39.049Z,16.40
2018-02-07T09:56:39.008Z,16.40
2018-02-07T09:57:39.048Z,16.40
2018-02-07T09:58:39.125Z,16.40
2018-02-07T09:59:39.060Z,16.40
2018-02-07T10:00:39.118Z,16.40
2018-02-07T10:01:39.060Z,16.40
2018-02-07T10:02:39.119Z,16.40
2018-02-07T10:03:39.121Z,16.40
2018-02-07T10:04:39.050Z,16.40
2018-02-07T10:05:39.127Z,16.60
2018-02-07T10:06:39.053Z,16.60
2018-02-07T10:07:39.123Z,16.60
2018-02-07T10:08:39.060Z,16.60
2018-02-07T10:09:39.124Z,16.60
2018-02-07T10:10:39.125Z,16.60
2018-02-07T10:11:39.056Z,16.60
2018-02-07T10:12:39.163Z,16.60
2018-02-07T10:13:39.126Z,16.60
2018-02-07T10:14:39.054Z,16.60
2018-02-07T10:15:39.142Z,14.70
2018-02-07T10:16:39.067Z,14.70
2018-02-07T10:17:39.132Z,14.70
2018-02-07T10:18:39.059Z,14.70
2018-02-07T10:19:39.134Z,14.70
2018-02-07T10:20:39.062Z,14.70
2018-02-07T10:21:39.133Z,14.70
2018-02-07T10:22:39.156Z,14.70
2018-02-07T10:23:39.067Z,14.70
2018-02-07T10:24:39.136Z,14.70
2018-02-07T10:25:39.131Z,14.50
2018-02-07T10:26:39.064Z,14.50
2018-02-07T10:27:39.134Z,14.50
2018-02-07T10:28:39.069Z,14.50
2018-02-07T10:29:39.134Z,14.50
2018-02-07T10:30:39.135Z,14.50
2018-02-07T10:31:39.068Z,14.50
2018-02-07T10:32:39.138Z,14.50
2018-02-07T10:33:39.227Z,14.50
2018-02-07T10:34:39.145Z,14.50
2018-02-07T10:35:39.109Z,15.30
2018-02-07T10:36:39.111Z,15.30
2018-02-07T10:37:39.109Z,15.30
2018-02-07T10:38:39.026Z,15.30
2018-02-07T10:39:39.026Z,15.30
2018-02-07T10:40:39.125Z,15.30
2018-02-07T10:41:39.127Z,15.30
2018-02-07T10:42:39.010Z,15.30
2018-02-07T10:43:39.110Z,15.30
2018-02-07T10:44:39.144Z,15.30
2018-02-07T10:45:39.145Z,13.80
2018-02-07T10:46:39.080Z,13.80
2018-02-07T10:47:39.147Z,13.80
2018-02-07T10:48:39.080Z,13.80
2018-02-07T10:49:39.086Z,13.80
2018-02-07T10:50:39.149Z,13.80
2018-02-07T10:51:39.081Z,13.80
2018-02-07T10:52:39.150Z,13.80
2018-02-07T10:53:39.083Z,13.80
2018-02-07T10:54:39.170Z,13.80
2018-02-07T10:55:39.085Z,13.80
2018-02-07T10:56:39.153Z,13.40
2018-02-07T10:57:39.085Z,13.40
2018-02-07T10:58:39.154Z,13.40
2018-02-07T10:59:39.085Z,13.40
2018-02-07T11:00:39.153Z,13.40
2018-02-07T11:01:39.088Z,13.40
2018-02-07T11:02:39.179Z,13.40
2018-02-07T11:03:39.089Z,13.40
2018-02-07T11:04:39.165Z,13.40
2018-02-07T11:05:39.157Z,13.40
2018-02-07T11:06:39.123Z,12.70
2018-02-07T11:07:39.148Z,12.70
2018-02-07T11:08:39.107Z,12.70
2018-02-07T11:09:39.141Z,12.70
2018-02-07T11:10:39.027Z,12.70
2018-02-07T11:11:39.069Z,12.70
2018-02-07T11:12:39.124Z,12.70
2018-02-07T11:13:39.033Z,12.70
2018-02-07T11:14:39.163Z,12.70
2018-02-07T11:15:39.071Z,12.70
2018-02-07T11:16:39.069Z,14.70
2018-02-07T11:17:39.121Z,14.70
2018-02-07T11:18:39.100Z,14.70
2018-02-07T11:19:39.156Z,14.70
2018-02-07T11:20:39.161Z,14.70
2018-02-07T11:21:39.140Z,14.70
2018-02-07T11:22:39.051Z,14.70
2018-02-07T11:23:39.057Z,14.70
2018-02-07T11:24:39.056Z,14.70
2018-02-07T11:25:39.107Z,14.70
2018-02-07T11:26:39.125Z,14.30
2018-02-07T11:27:39.157Z,14.30
2018-02-07T11:28:39.123Z,14.30
2018-02-07T11:29:39.057Z,14.30
2018-02-07T11:30:39.163Z,14.30
2018-02-07T11:31:39.131Z,14.30
2018-02-07T11:32:39.166Z,14.30
2018-02-07T11:33:39.188Z,14.30
2018-02-07T11:34:39.062Z,14.30
2018-02-07T11:35:39.175Z,14.30
2018-02-07T11:36:39.190Z,13.30
2018-02-07T11:37:39.108Z,13.30
2018-02-07T11:38:39.177Z,13.30
2018-02-07T11:39:39.115Z,13.30
2018-02-07T11:40:39.179Z,13.30
2018-02-07T11:41:39.115Z,13.30
2018-02-07T11:42:39.178Z,13.30
2018-02-07T11:43:39.109Z,13.30
2018-02-07T11:44:39.111Z,13.30
2018-02-07T11:45:39.185Z,13.30
2018-02-07T11:46:39.118Z,14.80
2018-02-07T11:47:39.182Z,14.80
2018-02-07T11:48:39.111Z,14.80
2018-02-07T11:49:39.187Z,14.80
2018-02-07T11:50:39.113Z,14.80
2018-02-07T11:51:39.184Z,14.80
2018-02-07T11:52:39.119Z,14.80
2018-02-07T11:53:39.114Z,14.80
2018-02-07T11:54:39.191Z,14.80
2018-02-07T11:55:39.123Z,14.80
2018-02-07T11:56:39.137Z,13.50
2018-02-07T11:57:39.071Z,13.50
2018-02-07T11:58:39.074Z,13.50
2018-02-07T11:59:39.159Z,13.50
2018-02-07T12:00:39.179Z,13.50
2018-02-07T12:01:39.181Z,13.50
2018-02-07T12:02:39.075Z,13.50
2018-02-07T12:03:39.071Z,13.50
2018-02-07T12:04:39.181Z,13.50
2018-02-07T12:05:39.143Z,13.50
2018-02-07T12:06:39.144Z,14.30
2018-02-07T12:07:39.155Z,14.30
2018-02-07T12:08:39.101Z,14.30
2018-02-07T12:09:39.120Z,14.30
2018-02-07T12:10:39.161Z,14.30
2018-02-07T12:11:39.174Z,14.30
2018-02-07T12:12:39.074Z,14.30
2018-02-07T12:13:39.124Z,14.30
2018-02-07T12:14:39.103Z,14.30
2018-02-07T12:15:39.072Z,14.30
2018-02-07T12:16:39.014Z,11.00
2018-02-07T12:17:39.078Z,11.00
2018-02-07T12:18:39.057Z,11.00
2018-02-07T12:19:39.106Z,11.00
2018-02-07T12:20:39.088Z,11.00
2018-02-07T12:21:39.010Z,11.00
2018-02-07T12:22:39.065Z,11.00
2018-02-07T12:23:39.116Z,11.00
2018-02-07T12:24:39.054Z,11.00
2018-02-07T12:25:39.020Z,11.00
2018-02-07T12:26:39.138Z,14.60
2018-02-07T12:27:39.110Z,14.60
2018-02-07T12:28:39.092Z,14.60
2018-02-07T12:29:39.180Z,14.60
2018-02-07T12:30:39.174Z,14.60
2018-02-07T12:31:39.073Z,14.60
2018-02-07T12:32:39.199Z,14.60
2018-02-07T12:33:39.154Z,14.60
2018-02-07T12:34:39.180Z,14.60
2018-02-07T12:35:39.198Z,14.60
2018-02-07T12:36:39.101Z,14.20
2018-02-07T12:37:39.143Z,14.20
2018-02-07T12:38:39.229Z,14.20
2018-02-07T12:39:39.145Z,14.20
2018-02-07T12:40:39.217Z,14.20
2018-02-07T12:41:39.215Z,14.20
2018-02-07T12:42:39.152Z,14.20
2018-02-07T12:43:39.214Z,14.20
2018-02-07T12:44:39.152Z,14.20
2018-02-07T12:45:39.148Z,14.20
2018-02-07T12:46:39.218Z,13.70
2018-02-07T12:47:39.217Z,13.70
2018-02-07T12:48:39.123Z,13.70
2018-02-07T12:49:39.146Z,13.70
2018-02-07T12:50:39.189Z,13.70
2018-02-07T12:51:39.189Z,13.70
2018-02-07T12:52:39.166Z,13.70